Time;durP1;ratioP1;P1;durP2;ratioP2;P2;SDS_P1;SDS_P2;PMS_P1;PMS_P2;Temp;Humidity;BMP_temperature;BMP_pressure;BME280_temperature;BME280_humidity;BME280_pressure;Samples;Min_cycle;Max_cycle;Signal;HPM_P1;HPM_P2
2023/11/12 00:01:15;;;;;;;1.08;0.93;;;21.20;41.10;;;;;;5029767;28;20026;-57
2023/11/12 00:03:41;;;;;;;1.63;0.90;;;21.20;41.10;;;;;;5031575;28;20329;-58
2023/11/12 00:06:07;;;;;;;2.00;0.90;;;21.20;41.10;;;;;;5012701;28;20515;-57
2023/11/12 00:08:33;;;;;;;1.92;1.05;;;21.10;41.00;;;;;;5033894;28;20060;-58
2023/11/12 00:10:58;;;;;;;1.25;0.88;;;21.10;41.10;;;;;;5030322;28;20729;-58
2023/11/12 00:13:24;;;;;;;1.95;0.90;;;21.10;41.10;;;;;;5029113;28;20060;-60
2023/11/12 00:15:51;;;;;;;2.35;1.08;;;21.10;41.10;;;;;;5030496;28;20107;-59
2023/11/12 00:18:17;;;;;;;1.45;0.80;;;21.10;41.10;;;;;;5035708;28;20056;-56
2023/11/12 00:20:43;;;;;;;2.03;1.00;;;21.10;41.10;;;;;;5032652;28;20021;-58
2023/11/12 00:23:09;;;;;;;2.05;1.00;;;21.10;41.10;;;;;;5031720;28;20116;-57
2023/11/12 00:25:35;;;;;;;1.55;1.08;;;21.10;41.00;;;;;;5032952;28;20421;-54
2023/11/12 00:28:01;;;;;;;2.00;0.95;;;21.10;41.10;;;;;;5019114;28;20043;-57
2023/11/12 00:30:27;;;;;;;1.55;0.80;;;21.10;41.00;;;;;;5034090;28;20025;-55
2023/11/12 00:32:53;;;;;;;1.13;0.85;;;21.10;41.00;;;;;;5035122;28;20142;-57
2023/11/12 00:35:19;;;;;;;1.65;1.00;;;21.10;41.00;;;;;;5015630;28;20371;-56
2023/11/12 00:37:46;;;;;;;1.25;0.90;;;21.10;41.10;;;;;;5033566;28;20112;-54
2023/11/12 00:40:14;;;;;;;1.38;0.70;;;21.10;41.00;;;;;;5014636;28;20351;-57
2023/11/12 00:42:39;;;;;;;1.92;1.10;;;21.10;41.00;;;;;;5034235;28;20104;-59
2023/11/12 00:45:06;;;;;;;1.48;1.00;;;21.10;41.00;;;;;;5033307;28;20109;-58
2023/11/12 00:47:32;;;;;;;1.58;0.95;;;21.10;41.00;;;;;;5016546;28;20060;-57
2023/11/12 00:49:58;;;;;;;2.17;0.80;;;21.10;41.00;;;;;;5016429;28;20404;-54
2023/11/12 00:52:24;;;;;;;1.02;0.70;;;21.10;41.00;;;;;;5016729;28;20036;-57
2023/11/12 00:54:49;;;;;;;2.20;1.10;;;21.10;41.00;;;;;;5015710;28;20478;-54
2023/11/12 00:57:15;;;;;;;3.55;1.00;;;21.00;41.00;;;;;;5017218;28;20037;-56
2023/11/12 00:59:42;;;;;;;1.90;1.02;;;21.00;41.00;;;;;;5031814;28;20061;-52
2023/11/12 01:02:09;;;;;;;1.52;1.00;;;21.10;41.00;;;;;;5032283;28;20095;-59
2023/11/12 01:04:35;;;;;;;1.00;0.80;;;21.00;41.00;;;;;;5015084;28;20029;-55
2023/11/12 01:07:02;;;;;;;1.23;0.93;;;21.00;41.00;;;;;;5034869;28;20096;-55
2023/11/12 01:09:29;;;;;;;1.67;1.15;;;21.00;41.00;;;;;;5014283;28;20030;-55
2023/11/12 01:11:55;;;;;;;1.45;0.70;;;21.00;41.00;;;;;;5018035;28;20456;-57
2023/11/12 01:14:20;;;;;;;1.52;0.93;;;21.00;40.90;;;;;;5020083;28;20037;-56
2023/11/12 01:16:46;;;;;;;1.00;0.80;;;21.00;40.90;;;;;;5032736;28;20027;-55
2023/11/12 01:19:12;;;;;;;1.55;0.90;;;21.00;40.90;;;;;;5043688;28;20025;-54
2023/11/12 01:21:39;;;;;;;1.58;1.00;;;21.00;40.90;;;;;;5019351;28;20044;-53
2023/11/12 01:24:05;;;;;;;1.45;0.90;;;21.00;40.90;;;;;;5014754;28;20037;-54
2023/11/12 01:26:31;;;;;;;1.45;1.08;;;21.00;40.90;;;;;;5032134;28;20021;-55
2023/11/12 01:28:57;;;;;;;2.25;1.30;;;21.00;40.90;;;;;;5015502;28;20463;-55
2023/11/12 01:31:23;;;;;;;1.80;1.02;;;20.90;40.80;;;;;;5018763;28;20030;-57
2023/11/12 01:33:51;;;;;;;1.92;0.93;;;21.00;40.90;;;;;;5033278;28;20126;-57
2023/11/12 01:36:17;;;;;;;1.20;0.90;;;21.00;40.90;;;;;;5018773;28;20542;-57
2023/11/12 01:38:43;;;;;;;1.58;1.00;;;20.90;40.80;;;;;;5034768;28;20028;-55
2023/11/12 01:41:09;;;;;;;1.42;0.93;;;20.90;40.80;;;;;;5032824;28;20029;-55
2023/11/12 01:43:35;;;;;;;1.45;0.95;;;20.90;40.80;;;;;;5015615;28;20033;-55
2023/11/12 01:46:05;;;;;;;1.00;0.80;;;20.90;40.80;;;;;;5013349;28;20025;-57
2023/11/12 01:48:31;;;;;;;2.00;1.10;;;20.90;40.80;;;;;;5033044;28;20113;-58
2023/11/12 01:50:59;;;;;;;1.33;0.82;;;20.90;40.80;;;;;;5032192;28;20044;-55
2023/11/12 01:53:26;;;;;;;2.15;1.30;;;20.90;40.80;;;;;;5035536;28;20087;-56
2023/11/12 01:55:54;;;;;;;1.23;0.90;;;20.90;40.70;;;;;;5032443;28;20025;-55
2023/11/12 01:58:20;;;;;;;1.25;0.80;;;20.90;40.70;;;;;;5016856;28;20033;-54
2023/11/12 02:00:46;;;;;;;1.40;0.90;;;20.90;40.70;;;;;;5031844;28;20354;-58
2023/11/12 02:03:16;;;;;;;1.10;0.80;;;20.90;40.70;;;;;;5043261;28;20025;-57
2023/11/12 02:05:43;;;;;;;1.80;0.95;;;20.90;40.70;;;;;;5018960;28;20044;-53
2023/11/12 02:08:09;;;;;;;1.15;0.85;;;20.90;40.70;;;;;;5013945;28;20029;-58
2023/11/12 02:10:36;;;;;;;0.90;0.80;;;20.90;40.70;;;;;;5015533;28;20471;-55
2023/11/12 02:13:06;;;;;;;2.22;1.20;;;20.90;40.80;;;;;;5015275;28;20110;-56
2023/11/12 02:15:34;;;;;;;1.23;0.85;;;20.80;40.70;;;;;;5041815;28;20448;-55
2023/11/12 02:18:00;;;;;;;1.85;1.10;;;20.80;40.70;;;;;;5019907;28;20039;-52
2023/11/12 02:20:27;;;;;;;1.63;1.00;;;20.80;40.70;;;;;;5015219;28;20120;-57
2023/11/12 02:22:53;;;;;;;1.65;1.15;;;20.80;40.70;;;;;;5020209;28;20037;-54
2023/11/12 02:25:19;;;;;;;1.05;0.80;;;20.80;40.70;;;;;;5013578;28;20033;-58
2023/11/12 02:27:44;;;;;;;1.65;1.10;;;20.80;40.70;;;;;;5027457;28;20431;-58
2023/11/12 02:30:11;;;;;;;1.23;0.98;;;20.80;40.70;;;;;;5030600;28;20475;-53
2023/11/12 02:32:38;;;;;;;1.35;1.08;;;20.80;40.70;;;;;;5014481;28;20061;-53
2023/11/12 02:35:07;;;;;;;1.38;0.80;;;20.80;40.70;;;;;;5014327;28;20026;-52
2023/11/12 02:37:33;;;;;;;1.40;0.82;;;20.80;40.70;;;;;;5031181;28;20021;-57
2023/11/12 02:39:59;;;;;;;1.33;1.08;;;20.80;40.70;;;;;;5014404;28;20068;-55
2023/11/12 02:42:27;;;;;;;1.50;1.00;;;20.80;40.70;;;;;;5032136;28;20068;-55
2023/11/12 02:44:53;;;;;;;1.00;0.80;;;20.80;40.70;;;;;;5013468;28;20017;-56
2023/11/12 02:47:21;;;;;;;1.98;1.00;;;20.70;40.70;;;;;;5014071;28;20021;-52
2023/11/12 02:50:03;;;;;;;1.75;1.17;;;20.80;40.70;;;;;;5031523;28;20053;-57
2023/11/12 02:52:30;;;;;;;1.35;1.00;;;20.80;40.70;;;;;;5015076;28;20033;-53
2023/11/12 02:54:57;;;;;;;1.55;0.85;;;20.70;40.70;;;;;;5045136;28;20483;-59
2023/11/12 02:57:23;;;;;;;3.22;1.10;;;20.70;40.80;;;;;;5030159;28;20021;-59
2023/11/12 02:59:50;;;;;;;1.20;0.90;;;20.70;40.80;;;;;;5031750;28;20025;-57
2023/11/12 03:02:16;;;;;;;1.58;1.00;;;20.70;40.70;;;;;;5013877;28;20026;-58
2023/11/12 03:04:42;;;;;;;1.35;0.93;;;20.70;40.80;;;;;;5013689;28;20025;-55
2023/11/12 03:07:08;;;;;;;2.08;1.08;;;20.70;40.80;;;;;;5031729;28;20109;-56
2023/11/12 03:09:34;;;;;;;1.70;1.08;;;20.70;40.80;;;;;;5014543;28;20488;-57
2023/11/12 03:12:02;;;;;;;1.83;1.00;;;20.70;40.80;;;;;;5029792;28;20352;-55
2023/11/12 03:14:29;;;;;;;2.17;1.20;;;20.70;40.80;;;;;;5031307;28;20053;-55
2023/11/12 03:16:55;;;;;;;1.13;0.80;;;20.70;40.80;;;;;;5013927;28;20017;-55
2023/11/12 03:19:21;;;;;;;1.42;1.10;;;20.60;40.80;;;;;;5015005;28;20040;-51
2023/11/12 03:21:52;;;;;;;2.08;1.08;;;20.70;40.90;;;;;;5031169;28;20041;-55
2023/11/12 03:24:19;;;;;;;2.28;1.35;;;20.60;40.80;;;;;;5013794;28;20128;-56
2023/11/12 03:26:45;;;;;;;3.45;1.05;;;20.60;40.80;;;;;;5014054;28;20422;-58
2023/11/12 03:29:11;;;;;;;1.88;1.17;;;20.70;40.90;;;;;;5014180;28;20132;-54
2023/11/12 03:31:38;;;;;;;1.83;1.10;;;20.60;40.80;;;;;;5013518;28;20374;-57
2023/11/12 03:34:04;;;;;;;1.45;1.00;;;20.70;40.90;;;;;;5031663;28;20120;-56
2023/11/12 03:36:30;;;;;;;1.88;1.02;;;20.70;40.90;;;;;;5031589;28;20101;-53
2023/11/12 03:38:56;;;;;;;1.17;0.90;;;20.60;40.80;;;;;;5031402;28;20475;-58
2023/11/12 03:41:22;;;;;;;1.83;0.98;;;20.60;40.90;;;;;;5013555;28;20025;-54
2023/11/12 03:43:48;;;;;;;1.83;1.20;;;20.60;40.80;;;;;;5027610;28;20033;-54
2023/11/12 03:46:15;;;;;;;1.85;1.35;;;20.60;40.90;;;;;;5014469;28;20125;-56
2023/11/12 03:48:41;;;;;;;1.70;1.10;;;20.60;40.90;;;;;;5031208;28;20026;-59
2023/11/12 03:51:07;;;;;;;2.33;1.25;;;20.60;40.90;;;;;;5013135;28;20483;-59
2023/11/12 03:53:33;;;;;;;1.40;1.00;;;20.60;40.90;;;;;;5001196;28;20421;-60
2023/11/12 03:55:59;;;;;;;1.83;1.00;;;20.60;40.90;;;;;;5017263;28;20030;-56
2023/11/12 03:58:25;;;;;;;1.92;1.40;;;20.60;40.90;;;;;;5017643;28;20037;-56
2023/11/12 04:00:51;;;;;;;1.58;1.23;;;20.60;40.90;;;;;;5034710;28;20470;-56
2023/11/12 04:03:18;;;;;;;1.73;1.38;;;20.60;40.90;;;;;;5033103;28;20039;-55
2023/11/12 04:05:44;;;;;;;2.42;1.30;;;20.60;40.90;;;;;;5034481;28;20057;-57
2023/11/12 04:08:10;;;;;;;1.98;1.40;;;20.60;40.90;;;;;;5017367;28;20062;-55
2023/11/12 04:10:37;;;;;;;2.88;1.40;;;20.60;40.90;;;;;;5034745;28;20467;-58
2023/11/12 04:13:03;;;;;;;1.55;1.25;;;20.60;40.90;;;;;;5032699;28;20357;-53
2023/11/12 04:15:29;;;;;;;2.47;1.38;;;20.60;41.00;;;;;;5034303;28;20018;-56
2023/11/12 04:17:55;;;;;;;2.88;1.63;;;20.50;40.90;;;;;;5034078;28;20509;-54
2023/11/12 04:20:20;;;;;;;2.75;1.77;;;20.50;40.90;;;;;;5035562;28;20921;-55
2023/11/12 04:22:46;;;;;;;3.00;2.10;;;20.50;40.90;;;;;;5034228;28;20399;-57
2023/11/12 04:25:12;;;;;;;4.03;2.20;;;20.50;40.90;;;;;;5033998;28;20064;-54
2023/11/12 04:27:38;;;;;;;3.15;1.90;;;20.50;40.90;;;;;;5034421;28;20021;-56
2023/11/12 04:30:06;;;;;;;3.60;2.13;;;20.50;40.90;;;;;;5017021;28;20359;-55
2023/11/12 04:32:36;;;;;;;4.05;2.50;;;20.50;41.00;;;;;;5015867;28;20037;-56
2023/11/12 04:35:02;;;;;;;4.22;2.40;;;20.50;41.00;;;;;;5034084;28;20041;-57
2023/11/12 04:37:27;;;;;;;3.83;2.42;;;20.50;41.00;;;;;;5034712;28;20095;-55
2023/11/12 04:39:54;;;;;;;5.60;3.10;;;20.50;41.00;;;;;;5033814;28;20026;-55
2023/11/12 04:42:19;;;;;;;3.78;2.60;;;20.50;41.00;;;;;;5017129;28;20025;-55
2023/11/12 04:44:45;;;;;;;4.53;2.60;;;20.50;41.00;;;;;;5033996;28;20087;-56
2023/11/12 04:47:11;;;;;;;3.53;2.40;;;20.50;41.00;;;;;;5034649;28;20068;-57
2023/11/12 04:49:38;;;;;;;4.10;2.72;;;20.50;41.00;;;;;;5033300;28;20041;-56
2023/11/12 04:52:05;;;;;;;3.85;2.55;;;20.50;41.00;;;;;;5033678;28;20022;-57
2023/11/12 04:54:30;;;;;;;4.45;3.05;;;20.50;41.10;;;;;;5033498;28;20091;-55
2023/11/12 04:56:56;;;;;;;4.65;3.13;;;20.50;41.00;;;;;;5032993;28;20056;-56
2023/11/12 04:59:22;;;;;;;4.47;3.13;;;20.50;41.10;;;;;;5032902;28;20130;-56
2023/11/12 05:01:49;;;;;;;4.05;2.67;;;20.50;41.10;;;;;;5033631;28;20389;-54
2023/11/12 05:04:16;;;;;;;4.63;3.22;;;20.50;41.10;;;;;;5032059;28;20025;-56
2023/11/12 05:06:42;;;;;;;5.57;3.00;;;20.50;41.10;;;;;;5034430;28;20029;-52
2023/11/12 05:09:08;;;;;;;4.30;3.08;;;20.50;41.10;;;;;;4998954;28;20663;-55
2023/11/12 05:11:37;;;;;;;4.10;3.03;;;20.40;41.00;;;;;;5047262;28;20029;-57
2023/11/12 05:14:02;;;;;;;6.47;3.30;;;20.50;41.00;;;;;;5033406;28;20470;-59
2023/11/12 05:16:28;;;;;;;5.03;3.30;;;20.50;41.10;;;;;;5033820;28;20033;-59
2023/11/12 05:18:54;;;;;;;4.38;3.05;;;20.40;41.00;;;;;;5033427;28;20036;-57
2023/11/12 05:21:21;;;;;;;4.50;2.92;;;20.50;41.00;;;;;;5044773;28;20352;-56
2023/11/12 05:23:47;;;;;;;4.30;2.67;;;20.40;41.00;;;;;;5032937;28;20056;-56
2023/11/12 05:26:14;;;;;;;4.55;3.28;;;20.40;41.00;;;;;;5033674;28;20420;-55
2023/11/12 05:28:40;;;;;;;4.35;2.90;;;20.40;41.00;;;;;;5015291;28;20744;-55
2023/11/12 05:31:07;;;;;;;4.70;2.90;;;20.40;41.00;;;;;;5012972;28;20071;-55
2023/11/12 05:33:33;;;;;;;3.83;2.80;;;20.40;41.00;;;;;;5032971;28;20067;-56
2023/11/12 05:35:59;;;;;;;4.22;3.05;;;20.40;41.00;;;;;;5014503;28;20041;-54
2023/11/12 05:38:25;;;;;;;4.07;2.80;;;20.40;41.00;;;;;;5033037;28;20079;-56
2023/11/12 05:40:51;;;;;;;4.03;2.85;;;20.40;41.00;;;;;;5033097;28;20037;-56
2023/11/12 05:43:18;;;;;;;3.85;2.90;;;20.40;41.00;;;;;;5033020;28;20052;-55
2023/11/12 05:45:44;;;;;;;4.03;2.75;;;20.40;41.00;;;;;;5032611;28;20108;-56
2023/11/12 05:48:10;;;;;;;4.45;3.08;;;20.40;41.00;;;;;;5048103;28;20107;-56
2023/11/12 05:50:37;;;;;;;4.53;3.50;;;20.40;41.00;;;;;;5033071;28;20440;-53
2023/11/12 05:53:03;;;;;;;4.00;2.60;;;20.40;41.00;;;;;;5033008;28;20033;-53
2023/11/12 05:55:29;;;;;;;3.45;2.65;;;20.40;41.00;;;;;;5032801;28;20035;-55
2023/11/12 05:57:55;;;;;;;4.25;2.83;;;20.40;41.00;;;;;;5032544;28;20125;-57
2023/11/12 06:00:21;;;;;;;4.75;2.97;;;20.40;41.00;;;;;;5032276;28;20033;-54
2023/11/12 06:02:46;;;;;;;4.30;2.92;;;20.30;40.90;;;;;;5015380;28;20168;-54
2023/11/12 06:05:12;;;;;;;4.72;2.95;;;20.30;40.90;;;;;;5031515;28;20029;-56
2023/11/12 06:07:38;;;;;;;3.65;2.50;;;20.30;40.90;;;;;;5031794;28;20121;-58
2023/11/12 06:10:04;;;;;;;4.57;3.03;;;20.30;40.90;;;;;;5031718;28;20063;-56
2023/11/12 06:12:30;;;;;;;4.05;2.88;;;20.30;40.90;;;;;;5032750;28;20028;-55
2023/11/12 06:14:56;;;;;;;3.88;2.80;;;20.30;40.90;;;;;;5032328;28;20017;-54
2023/11/12 06:17:24;;;;;;;3.65;2.85;;;20.30;40.90;;;;;;5034450;28;20029;-53
2023/11/12 06:19:51;;;;;;;3.70;2.90;;;20.30;40.90;;;;;;5031797;28;20040;-55
2023/11/12 06:22:18;;;;;;;5.78;3.08;;;20.30;40.90;;;;;;5030807;28;20036;-55
2023/11/12 06:24:43;;;;;;;4.68;3.40;;;20.30;40.80;;;;;;5014276;28;20056;-59
2023/11/12 06:27:10;;;;;;;4.97;3.22;;;20.30;40.80;;;;;;5031938;28;20720;-54
2023/11/12 06:29:37;;;;;;;3.40;2.85;;;20.30;40.80;;;;;;5031702;28;20083;-58
2023/11/12 06:32:04;;;;;;;5.50;3.60;;;20.30;40.80;;;;;;5032002;28;20025;-59
2023/11/12 06:34:30;;;;;;;4.30;2.97;;;20.30;40.80;;;;;;5032112;28;20128;-56
2023/11/12 06:36:56;;;;;;;4.88;3.20;;;20.30;40.80;;;;;;5031353;28;20082;-56
2023/11/12 06:39:22;;;;;;;4.85;3.13;;;20.30;40.80;;;;;;5031180;28;20026;-53
2023/11/12 06:41:48;;;;;;;5.60;2.90;;;20.30;40.70;;;;;;5031545;28;20029;-56
2023/11/12 06:44:14;;;;;;;3.83;2.92;;;20.30;40.70;;;;;;5031464;28;20037;-56
2023/11/12 06:46:44;;;;;;;3.90;2.78;;;20.30;40.70;;;;;;5032180;28;20041;-57
2023/11/12 06:49:10;;;;;;;3.50;2.83;;;20.30;40.70;;;;;;5032188;28;20105;-57
2023/11/12 06:51:36;;;;;;;5.22;3.35;;;20.30;40.70;;;;;;5032115;28;20108;-55
2023/11/12 06:54:03;;;;;;;4.50;2.90;;;20.30;40.60;;;;;;5031757;28;20076;-53
2023/11/12 06:56:34;;;;;;;5.60;3.50;;;20.30;40.60;;;;;;5030763;28;20034;-58
2023/11/12 06:59:02;;;;;;;4.28;2.80;;;20.30;40.60;;;;;;5014867;28;20025;-57
2023/11/12 07:01:29;;;;;;;4.05;2.90;;;20.30;40.60;;;;;;5032037;28;20159;-56
2023/11/12 07:03:55;;;;;;;3.97;3.03;;;20.30;40.60;;;;;;5030868;28;20028;-55
2023/11/12 07:06:21;;;;;;;4.15;2.88;;;20.20;40.60;;;;;;5031622;28;20029;-51
2023/11/12 07:08:46;;;;;;;4.07;3.05;;;20.30;40.60;;;;;;5035589;28;20104;-53
2023/11/12 07:11:12;;;;;;;5.03;2.72;;;20.20;40.60;;;;;;5030882;28;20025;-53
2023/11/12 07:13:38;;;;;;;3.85;2.90;;;20.20;40.60;;;;;;5010405;28;20056;-58
2023/11/12 07:16:04;;;;;;;5.28;2.90;;;20.20;40.50;;;;;;5014972;28;20033;-56
2023/11/12 07:18:30;;;;;;;4.53;2.83;;;20.20;40.50;;;;;;5012296;28;20042;-58
2023/11/12 07:20:56;;;;;;;3.58;2.50;;;20.30;40.60;;;;;;5015149;28;20021;-54
2023/11/12 07:23:22;;;;;;;4.18;3.03;;;20.20;40.50;;;;;;5012339;28;20479;-57
2023/11/12 07:25:48;;;;;;;4.18;2.60;;;20.20;41.10;;;;;;5011001;28;20498;-59
2023/11/12 07:28:14;;;;;;;3.75;2.92;;;20.20;40.50;;;;;;5015472;28;20343;-57
2023/11/12 07:30:40;;;;;;;3.67;2.97;;;20.20;40.50;;;;;;5017340;28;20029;-56
2023/11/12 07:33:06;;;;;;;4.97;3.33;;;20.20;40.50;;;;;;5014736;28;20021;-57
2023/11/12 07:35:32;;;;;;;4.38;2.42;;;20.20;40.60;;;;;;5014662;28;20025;-52
2023/11/12 07:38:00;;;;;;;4.13;2.53;;;20.20;40.60;;;;;;5015419;28;20066;-56
2023/11/12 07:40:26;;;;;;;3.78;2.72;;;20.20;40.60;;;;;;5014525;28;20040;-56
2023/11/12 07:42:53;;;;;;;4.05;2.88;;;20.20;40.60;;;;;;5014570;28;20026;-59
2023/11/12 07:45:19;;;;;;;4.25;2.67;;;20.20;40.60;;;;;;5014508;28;20423;-52
2023/11/12 07:47:45;;;;;;;3.35;2.65;;;20.20;40.60;;;;;;5017492;28;20118;-55
2023/11/12 07:50:11;;;;;;;3.25;2.45;;;20.20;40.60;;;;;;5014338;28;20022;-55
2023/11/12 07:52:45;;;;;;;3.60;2.78;;;20.20;40.70;;;;;;5012333;28;20045;-58
2023/11/12 07:55:16;;;;;;;3.80;2.47;;;20.20;40.70;;;;;;5014235;28;20503;-56
2023/11/12 07:57:42;;;;;;;3.30;2.55;;;20.20;40.70;;;;;;5013752;28;20026;-58
2023/11/12 08:00:12;;;;;;;5.22;2.67;;;20.20;40.60;;;;;;5014610;28;20032;-57
2023/11/12 08:02:39;;;;;;;3.38;2.45;;;20.20;40.60;;;;;;5018340;28;20092;-53
2023/11/12 08:05:08;;;;;;;3.15;2.58;;;20.20;40.60;;;;;;5037319;28;20030;-55
2023/11/12 08:07:37;;;;;;;3.42;2.55;;;20.20;40.60;;;;;;5011577;28;20034;-58
2023/11/12 08:10:04;;;;;;;3.75;2.35;;;20.20;40.60;;;;;;5014439;28;20451;-59
2023/11/12 08:12:31;;;;;;;3.53;2.53;;;20.20;40.70;;;;;;5018592;28;20034;-56
2023/11/12 08:14:58;;;;;;;3.75;2.50;;;20.20;40.70;;;;;;5016523;28;20111;-54
2023/11/12 08:17:23;;;;;;;3.28;2.63;;;20.20;40.70;;;;;;5033824;28;20063;-53
2023/11/12 08:19:49;;;;;;;3.60;2.42;;;20.20;40.80;;;;;;5014641;28;20045;-55
2023/11/12 08:22:15;;;;;;;3.60;2.67;;;20.20;40.90;;;;;;5036150;28;20025;-53
2023/11/12 08:24:41;;;;;;;3.60;2.50;;;20.20;40.90;;;;;;5031381;28;20030;-57
2023/11/12 08:27:07;;;;;;;3.83;2.30;;;20.20;40.90;;;;;;5034058;28;20388;-54
2023/11/12 08:29:34;;;;;;;3.28;2.30;;;20.20;41.00;;;;;;5036890;28;20441;-56
2023/11/12 08:32:00;;;;;;;3.20;2.60;;;20.20;41.00;;;;;;5040922;28;20029;-59
2023/11/12 08:34:26;;;;;;;4.13;2.67;;;20.20;41.00;;;;;;5038360;28;20420;-57
2023/11/12 08:36:53;;;;;;;3.42;2.42;;;20.20;41.00;;;;;;5034582;28;20041;-57
2023/11/12 08:39:19;;;;;;;3.72;2.60;;;20.20;41.00;;;;;;5031813;28;20029;-54
2023/11/12 08:41:48;;;;;;;4.20;2.47;;;20.20;40.90;;;;;;5032675;28;20031;-56
2023/11/12 08:44:15;;;;;;;3.33;2.50;;;20.20;40.90;;;;;;5047201;28;20068;-53
2023/11/12 08:46:42;;;;;;;3.53;2.40;;;20.20;40.90;;;;;;5033912;28;20025;-56
2023/11/12 08:49:08;;;;;;;4.53;2.40;;;20.20;40.90;;;;;;5020568;28;20029;-54
2023/11/12 08:51:34;;;;;;;3.70;2.33;;;20.20;41.00;;;;;;5039569;28;20055;-55
2023/11/12 08:54:00;;;;;;;2.88;2.20;;;20.20;40.90;;;;;;5051738;28;20360;-56
2023/11/12 08:56:29;;;;;;;4.15;2.75;;;20.20;40.90;;;;;;5037429;28;20116;-56
2023/11/12 08:58:56;;;;;;;4.00;2.40;;;20.30;40.90;;;;;;5037075;28;20071;-56
2023/11/12 09:01:22;;;;;;;5.95;3.05;;;20.20;40.90;;;;;;5037688;28;20026;-52
2023/11/12 09:03:48;;;;;;;3.47;2.47;;;20.30;40.90;;;;;;5037200;28;20026;-57
2023/11/12 09:06:14;;;;;;;3.25;2.45;;;20.30;40.90;;;;;;5037403;28;20033;-58
2023/11/12 09:08:39;;;;;;;2.95;2.50;;;20.30;40.90;;;;;;5043496;28;20086;-54
2023/11/12 09:11:05;;;;;;;3.20;2.13;;;20.30;40.90;;;;;;5055705;28;20367;-58
2023/11/12 09:13:31;;;;;;;3.70;2.50;;;20.30;40.90;;;;;;5042638;28;20076;-57
2023/11/12 09:15:58;;;;;;;3.47;2.10;;;20.30;40.90;;;;;;5056870;28;20033;-57
2023/11/12 09:18:24;;;;;;;3.53;1.92;;;20.30;40.80;;;;;;5016764;28;20041;-59
2023/11/12 09:20:52;;;;;;;3.35;2.50;;;20.30;40.80;;;;;;5042724;28;20044;-57
2023/11/12 09:23:18;;;;;;;2.90;2.10;;;20.30;40.80;;;;;;5047475;28;20056;-53
2023/11/12 09:25:45;;;;;;;3.38;2.25;;;20.30;40.90;;;;;;5057116;28;20029;-57
2023/11/12 09:28:11;;;;;;;8.70;2.50;;;20.30;41.00;;;;;;5021829;28;20030;-57
2023/11/12 09:30:37;;;;;;;3.47;2.10;;;20.30;41.10;;;;;;5036490;28;20041;-54
2023/11/12 09:33:08;;;;;;;2.47;1.90;;;20.30;41.10;;;;;;5026715;28;20040;-60
2023/11/12 09:35:34;;;;;;;2.85;1.55;;;20.30;41.10;;;;;;5056128;28;20041;-61
2023/11/12 09:38:00;;;;;;;1.83;1.00;;;20.30;41.10;;;;;;5038776;28;20082;-61
2023/11/12 09:40:29;;;;;;;1.63;1.15;;;20.30;41.10;;;;;;5020516;28;20117;-56
2023/11/12 09:42:56;;;;;;;2.30;1.60;;;20.20;41.20;;;;;;5036135;28;20516;-56
2023/11/12 09:45:23;;;;;;;5.95;3.40;;;20.20;41.30;;;;;;5036211;28;20053;-56
2023/11/12 09:47:53;;;;;;;10.07;5.50;;;20.20;41.50;;;;;;5044893;28;20072;-59
2023/11/12 09:50:22;;;;;;;10.32;5.65;;;20.20;42.20;;;;;;5038439;28;20104;-54
2023/11/12 09:52:50;;;;;;;25.42;14.20;;;20.20;42.70;;;;;;5019083;28;20387;-57
2023/11/12 09:55:17;;;;;;;26.25;14.02;;;20.30;43.30;;;;;;5035748;28;20367;-57
2023/11/12 09:57:47;;;;;;;19.50;11.90;;;20.30;43.90;;;;;;5036848;28;20083;-55
2023/11/12 10:00:16;;;;;;;18.88;10.57;;;20.30;44.30;;;;;;5035765;28;20048;-56
2023/11/12 10:02:44;;;;;;;18.65;10.80;;;20.30;44.60;;;;;;5043289;28;20032;-56
2023/11/12 10:05:11;;;;;;;17.48;10.13;;;20.40;45.00;;;;;;5038768;28;20072;-58
2023/11/12 10:07:40;;;;;;;17.00;9.30;;;20.40;45.30;;;;;;5017702;28;20030;-57
2023/11/12 10:10:26;;;;;;;23.52;10.93;;;20.40;45.60;;;;;;5036067;28;20095;-56
2023/11/12 10:12:56;;;;;;;23.83;12.05;;;20.50;46.00;;;;;;5038133;28;20045;-57
2023/11/12 10:15:35;;;;;;;27.27;13.10;;;20.50;46.30;;;;;;5032152;28;20345;-55
2023/11/12 10:18:02;;;;;;;18.70;11.30;;;20.50;46.90;;;;;;5030660;28;20022;-59
2023/11/12 10:20:30;;;;;;;22.75;11.65;;;20.50;47.30;;;;;;5039238;28;20026;-54
2023/11/12 10:22:57;;;;;;;19.58;10.50;;;20.60;47.80;;;;;;5033723;28;20032;-49
2023/11/12 10:25:43;;;;;;;19.10;9.95;;;20.60;48.00;;;;;;5019494;28;20028;-50
2023/11/12 10:28:11;;;;;;;19.58;10.43;;;20.60;48.60;;;;;;5030323;28;20459;-54
2023/11/12 10:30:38;;;;;;;14.40;8.38;;;20.70;48.80;;;;;;5031111;28;21593;-55
2023/11/12 10:33:23;;;;;;;17.83;9.48;;;20.70;49.00;;;;;;5037166;28;20107;-52
2023/11/12 10:35:50;;;;;;;14.68;8.13;;;20.70;49.40;;;;;;5034361;28;20341;-54
2023/11/12 10:38:17;;;;;;;15.25;7.97;;;20.70;49.40;;;;;;5034480;28;20057;-56
2023/11/12 10:41:03;;;;;;;14.88;8.20;;;20.80;49.60;;;;;;5031685;28;20038;-51
2023/11/12 10:43:34;;;;;;;12.93;7.28;;;20.90;50.20;;;;;;5029042;28;20044;-55
2023/11/12 10:46:03;;;;;;;12.07;6.80;;;20.80;49.30;;;;;;5037573;28;20037;-53
2023/11/12 10:48:42;;;;;;;13.77;6.80;;;20.90;49.10;;;;;;5029050;28;20105;-53
2023/11/12 10:51:10;;;;;;;8.63;5.43;;;20.90;48.70;;;;;;5036077;28;20030;-54
2023/11/12 10:53:38;;;;;;;7.30;4.70;;;20.90;48.40;;;;;;5038524;28;20068;-53
2023/11/12 10:56:05;;;;;;;8.38;4.45;;;20.90;48.70;;;;;;5033465;28;20401;-53
2023/11/12 10:58:32;;;;;;;7.57;4.32;;;20.90;47.80;;;;;;5035198;28;20025;-52
2023/11/12 11:01:03;;;;;;;6.97;3.90;;;20.90;47.60;;;;;;5017802;28;20476;-55
2023/11/12 11:03:31;;;;;;;3.00;1.98;;;20.90;47.30;;;;;;5031139;28;20025;-57
2023/11/12 11:05:59;;;;;;;1.95;1.40;;;20.90;46.70;;;;;;5032231;28;20079;-58
2023/11/12 11:08:26;;;;;;;4.35;1.60;;;20.80;46.10;;;;;;5030678;28;20039;-56
2023/11/12 11:10:54;;;;;;;4.07;1.45;;;20.60;45.80;;;;;;5032587;28;20475;-61
2023/11/12 11:13:21;;;;;;;2.90;1.50;;;20.50;45.70;;;;;;5044772;28;20102;-60
2023/11/12 11:15:52;;;;;;;2.53;1.40;;;20.40;45.60;;;;;;5032826;28;20052;-59
2023/11/12 11:18:35;;;;;;;2.20;1.40;;;20.30;45.60;;;;;;5033500;28;20029;-60
2023/11/12 11:21:05;;;;;;;1.50;1.08;;;20.20;45.50;;;;;;5031159;28;20039;-59
2023/11/12 11:23:53;;;;;;;2.63;1.40;;;20.10;45.60;;;;;;5029830;28;20065;-55
2023/11/12 11:26:38;;;;;;;1.70;1.10;;;20.00;45.60;;;;;;5036068;28;20040;-55
2023/11/12 11:29:04;;;;;;;4.55;2.15;;;19.90;45.60;;;;;;5031267;28;21641;-50
2023/11/12 11:31:31;;;;;;;5.38;2.67;;;19.80;45.60;;;;;;5013677;28;20103;-53
2023/11/12 11:33:58;;;;;;;8.07;2.88;;;19.90;45.90;;;;;;5016268;28;20445;-54
2023/11/12 11:36:25;;;;;;;4.60;2.83;;;20.00;46.00;;;;;;5030639;28;20040;-57
2023/11/12 11:39:06;;;;;;;6.68;3.17;;;20.00;46.00;;;;;;5031258;28;20036;-53
2023/11/12 11:41:50;;;;;;;5.28;2.85;;;20.10;45.80;;;;;;5032485;28;20042;-54
2023/11/12 11:44:32;;;;;;;4.80;2.95;;;20.20;45.80;;;;;;5032766;28;20036;-51
2023/11/12 11:47:24;;;;;;;5.53;2.90;;;20.20;45.80;;;;;;5030647;28;20084;-52
2023/11/12 11:49:51;;;;;;;4.53;1.95;;;20.30;45.90;;;;;;5013939;28;20025;-52
2023/11/12 11:52:28;;;;;;;3.60;2.35;;;20.30;45.60;;;;;;5033239;28;20061;-51
2023/11/12 11:54:57;;;;;;;3.65;2.20;;;20.30;45.40;;;;;;5029888;28;20033;-52
2023/11/12 11:57:27;;;;;;;4.70;2.10;;;20.40;45.30;;;;;;5029786;28;20021;-56
2023/11/12 11:59:54;;;;;;;4.97;2.17;;;20.40;45.20;;;;;;5024873;28;20030;-52
2023/11/12 12:02:21;;;;;;;3.45;1.42;;;20.40;45.10;;;;;;5027666;28;20108;-54
2023/11/12 12:04:49;;;;;;;2.47;1.83;;;20.40;44.90;;;;;;5030026;28;20440;-54
2023/11/12 12:07:22;;;;;;;2.70;1.90;;;20.40;44.80;;;;;;5028547;28;20021;-58
2023/11/12 12:09:49;;;;;;;3.35;1.80;;;20.40;44.70;;;;;;5033194;28;20045;-59
2023/11/12 12:12:15;;;;;;;3.95;1.77;;;20.40;44.60;;;;;;5028761;28;20131;-58
2023/11/12 12:14:41;;;;;;;4.80;2.50;;;20.40;44.60;;;;;;5032585;28;20077;-59
2023/11/12 12:17:08;;;;;;;7.43;3.38;;;20.40;44.50;;;;;;5029362;28;20047;-57
2023/11/12 12:19:34;;;;;;;7.75;3.10;;;20.40;44.40;;;;;;5033697;28;20045;-54
2023/11/12 12:22:00;;;;;;;5.22;3.00;;;20.50;44.50;;;;;;5033429;28;20026;-56
2023/11/12 12:24:26;;;;;;;6.97;3.10;;;20.40;44.70;;;;;;5016766;28;20083;-58
2023/11/12 12:26:53;;;;;;;4.93;2.25;;;20.40;44.90;;;;;;5038154;28;20097;-57
2023/11/12 12:29:21;;;;;;;4.75;3.10;;;20.50;45.10;;;;;;5031901;28;20449;-55
2023/11/12 12:31:48;;;;;;;4.18;2.38;;;20.50;45.30;;;;;;5034334;28;20025;-55
2023/11/12 12:34:19;;;;;;;6.25;2.55;;;20.50;45.40;;;;;;5031011;28;20111;-55
2023/11/12 12:37:06;;;;;;;4.50;2.10;;;20.60;45.60;;;;;;5031719;28;20116;-57
2023/11/12 12:40:03;;;;;;;3.63;2.20;;;20.60;45.60;;;;;;5016900;28;20503;-56
2023/11/12 12:42:30;;;;;;;3.97;2.13;;;20.60;45.70;;;;;;5033665;28;20099;-55
2023/11/12 12:44:59;;;;;;;4.22;2.22;;;20.60;45.70;;;;;;5032702;28;20329;-54
2023/11/12 12:47:35;;;;;;;6.30;1.70;;;20.60;45.70;;;;;;5030695;28;20025;-57